Time;durP1;ratioP1;P1;durP2;ratioP2;P2;SDS_P1;SDS_P2;PMS_P1;PMS_P2;Temp;Humidity;BMP_temperature;BMP_pressure;BME280_temperature;BME280_humidity;BME280_pressure;Samples;Min_cycle;Max_cycle;Signal;HPM_P1;HPM_P2
2023/02/18 00:01:29;;;;;;;;;;;;;;;28.69;61.23;101137.59;5069054;27;69420;-38
2023/02/18 00:03:59;;;;;;;;;;;;;;;28.75;61.28;101136.78;5072637;27;66652;-39
2023/02/18 00:06:30;;;;;;;;;;;;;;;28.78;62.04;101144.50;5070693;27;69218;-38
2023/02/18 00:09:02;;;;;;;;;;;;;;;28.82;62.21;101145.75;5067558;27;65727;-38
2023/02/18 00:11:33;;;;;;;;;;;;;;;28.88;62.43;101147.66;5069315;28;70811;-38
2023/02/18 00:14:05;;;;;;;;;;;;;;;28.89;62.65;101160.13;5067980;27;66892;-38
2023/02/18 00:16:35;;;;;;;;;;;;;;;28.94;63.18;101151.41;5073096;27;71712;-39
2023/02/18 00:19:06;;;;;;;;;;;;;;;28.95;63.87;101159.34;5065057;27;67267;-39
2023/02/18 00:21:37;;;;;;;;;;;;;;;28.99;63.65;101159.75;5071375;27;70315;-37
2023/02/18 00:24:07;;;;;;;;;;;;;;;29.01;64.01;101157.69;5068733;28;66349;-37
2023/02/18 00:26:38;;;;;;;;;;;;;;;29.05;64.18;101169.78;5073053;27;70013;-38
2023/02/18 00:29:08;;;;;;;;;;;;;;;29.08;64.85;101168.56;5066446;27;66395;-38
2023/02/18 00:31:39;;;;;;;;;;;;;;;29.09;64.70;101165.66;5070024;27;70352;-40
2023/02/18 00:34:10;;;;;;;;;;;;;;;29.12;64.66;101177.94;5076185;27;66663;-38
2023/02/18 00:36:40;;;;;;;;;;;;;;;29.13;65.37;101176.88;5079227;27;69738;-37
2023/02/18 00:39:11;;;;;;;;;;;;;;;29.17;65.52;101186.28;5058752;27;65370;-38
2023/02/18 00:41:41;;;;;;;;;;;;;;;29.19;65.57;101192.28;5072614;27;70327;-39
2023/02/18 00:44:11;;;;;;;;;;;;;;;29.23;66.25;101188.16;5073316;27;65534;-37
2023/02/18 00:46:42;;;;;;;;;;;;;;;29.28;67.42;101188.41;5078166;27;70268;-37
2023/02/18 00:49:12;;;;;;;;;;;;;;;29.35;67.81;101191.94;5070576;28;65541;-38
2023/02/18 00:51:42;;;;;;;;;;;;;;;29.39;67.91;101198.63;5081683;27;70350;-38
2023/02/18 00:54:12;;;;;;;;;;;;;;;29.39;68.05;101198.63;5083999;27;66115;-38
2023/02/18 00:56:43;;;;;;;;;;;;;;;29.38;68.14;101206.91;5090203;27;69645;-39
2023/02/18 00:59:13;;;;;;;;;;;;;;;29.31;66.47;101206.91;5079444;27;65936;-39
2023/02/18 01:01:43;;;;;;;;;;;;;;;29.29;65.13;101203.56;5078508;27;69864;-38
2023/02/18 01:04:13;;;;;;;;;;;;;;;29.31;63.91;101206.91;5074879;27;66428;-39
2023/02/18 01:06:43;;;;;;;;;;;;;;;29.32;63.38;101210.44;5073320;28;70156;-39
2023/02/18 01:09:13;;;;;;;;;;;;;;;29.34;63.64;101222.72;5071834;27;66318;-41
2023/02/18 01:11:44;;;;;;;;;;;;;;;29.36;63.31;101220.66;5075308;27;69373;-39
2023/02/18 01:14:14;;;;;;;;;;;;;;;29.38;63.88;101223.13;5079543;27;66661;-40
2023/02/18 01:16:44;;;;;;;;;;;;;;;29.40;63.29;101227.31;5078925;27;70434;-40
2023/02/18 01:19:14;;;;;;;;;;;;;;;29.40;63.59;101227.31;5077350;27;66244;-40
2023/02/18 01:21:45;;;;;;;;;;;;;;;29.44;63.15;101238.53;5075290;27;70168;-40
2023/02/18 01:24:16;;;;;;;;;;;;;;;29.45;63.09;101239.34;5068040;27;66026;-40
2023/02/18 01:26:46;;;;;;;;;;;;;;;29.46;63.57;101241.88;5091814;27;70082;-39
2023/02/18 01:29:16;;;;;;;;;;;;;;;29.47;63.55;101242.69;5073465;27;65885;-40
2023/02/18 01:31:46;;;;;;;;;;;;;;;29.47;63.85;101242.69;5074600;27;70569;-39
2023/02/18 01:34:16;;;;;;;;;;;;;;;29.49;63.77;101254.16;5071417;28;66249;-39
2023/02/18 01:36:46;;;;;;;;;;;;;;;29.50;63.92;101253.09;5078357;27;69990;-39
2023/02/18 01:39:17;;;;;;;;;;;;;;;29.52;63.85;101256.44;5076139;27;66960;-38
2023/02/18 01:41:47;;;;;;;;;;;;;;;29.53;63.68;101264.38;5079518;27;72057;-38
2023/02/18 01:44:22;;;;;;;;;;;;;;;29.55;63.80;101266.84;5076160;28;67030;-39
2023/02/18 01:46:52;;;;;;;;;;;;;;;29.54;63.31;101266.03;5076925;27;70579;-39
2023/02/18 01:49:33;;;;;;;;;;;;;;;29.56;63.65;101258.56;5073276;28;66785;-39
2023/02/18 01:52:10;;;;;;;;;;;;;;;29.57;63.71;101253.97;5069485;27;69378;-40
2023/02/18 01:54:43;;;;;;;;;;;;;;;29.59;63.79;101262.72;5087439;27;66043;-40
2023/02/18 01:57:42;;;;;;;;;;;;;;;29.60;63.60;101256.28;5080031;27;70376;-40
2023/02/18 02:00:15;;;;;;;;;;;;;;;29.62;64.05;101263.16;5089478;27;67502;-39
2023/02/18 02:02:48;;;;;;;;;;;;;;;29.63;64.20;101266.72;5085623;27;69916;-39
2023/02/18 02:05:19;;;;;;;;;;;;;;;29.64;64.16;101265.66;5095362;27;66852;-41
2023/02/18 02:07:51;;;;;;;;;;;;;;;29.65;64.11;101278.16;5076135;27;70526;-41
2023/02/18 02:10:21;;;;;;;;;;;;;;;29.67;63.73;101269.81;5094823;27;66560;-40
2023/02/18 02:13:11;;;;;;;;;;;;;;;29.68;63.94;101277.75;5097619;27;69877;-39
2023/02/18 02:15:48;;;;;;;;;;;;;;;29.69;63.50;101274.00;5096541;27;66277;-39
2023/02/18 02:18:22;;;;;;;;;;;;;;;29.70;63.49;101272.97;5093716;27;69880;-39
2023/02/18 02:21:11;;;;;;;;;;;;;;;29.26;64.08;101203.97;5076503;27;66404;-38
2023/02/18 02:23:59;;;;;;;;;;;;;;;29.72;63.50;101276.28;5095666;27;70615;-39
2023/02/18 02:26:58;;;;;;;;;;;;;;;29.72;63.97;101284.41;5080379;27;66817;-39
2023/02/18 02:29:40;;;;;;;;;;;;;;;29.74;63.25;101273.41;5090487;27;69645;-39
2023/02/18 02:32:30;;;;;;;;;;;;;;;29.76;63.14;101274.88;5095823;27;66143;-39
2023/02/18 02:35:06;;;;;;;;;;;;;;;29.76;63.07;101269.47;5050269;27;70289;-39
2023/02/18 02:37:42;;;;;;;;;;;;;;;29.77;63.16;101271.13;5089164;27;66385;-39
2023/02/18 02:40:12;;;;;;;;;;;;;;;29.79;63.01;101274.47;5080849;27;69707;-41
2023/02/18 02:43:01;;;;;;;;;;;;;;;29.80;63.15;101268.00;5096931;27;65555;-40
2023/02/18 02:45:46;;;;;;;;;;;;;;;29.81;63.54;101255.31;5085570;27;70446;-40
2023/02/18 02:48:22;;;;;;;;;;;;;;;29.83;63.08;101258.66;5061160;27;66376;-39
2023/02/18 02:51:12;;;;;;;;;;;;;;;29.85;63.15;101264.69;5097670;27;69792;-39
2023/02/18 02:53:43;;;;;;;;;;;;;;;29.86;63.29;101252.00;5081972;27;66502;-39
2023/02/18 02:56:18;;;;;;;;;;;;;;;29.87;63.12;101250.97;5064503;27;69959;-41
2023/02/18 02:58:57;;;;;;;;;;;;;;;29.90;63.13;101247.88;5083419;27;66080;-41
2023/02/18 03:01:43;;;;;;;;;;;;;;;29.91;63.25;101244.09;5073767;27;69903;-40
2023/02/18 03:04:17;;;;;;;;;;;;;;;29.93;62.84;101247.44;5091075;27;66495;-39
2023/02/18 03:07:08;;;;;;;;;;;;;;;29.95;63.45;101245.34;5062991;27;69771;-39
2023/02/18 03:09:51;;;;;;;;;;;;;;;29.96;63.42;101247.03;5097861;27;66431;-39
2023/02/18 03:12:24;;;;;;;;;;;;;;;29.97;62.80;101236.00;5093404;27;70255;-39
2023/02/18 03:15:12;;;;;;;;;;;;;;;29.99;62.95;101235.81;5080675;27;66014;-41
2023/02/18 03:17:46;;;;;;;;;;;;;;;30.00;63.24;101232.88;5051596;27;70110;-40
2023/02/18 03:20:28;;;;;;;;;;;;;;;30.01;62.71;101234.56;5061991;27;66624;-41
2023/02/18 03:23:00;;;;;;;;;;;;;;;30.03;62.65;101227.09;5068617;27;69672;-39
2023/02/18 03:25:32;;;;;;;;;;;;;;;30.06;63.18;101226.66;5080793;27;66290;-41
2023/02/18 03:28:17;;;;;;;;;;;;;;;30.07;62.75;101224.78;5092369;27;69141;-41
2023/02/18 03:30:50;;;;;;;;;;;;;;;30.10;62.68;101223.53;5071118;27;66264;-42
2023/02/18 03:33:25;;;;;;;;;;;;;;;30.11;62.73;101212.50;5097272;27;69811;-41
2023/02/18 03:35:55;;;;;;;;;;;;;;;30.13;63.24;101210.44;5080578;27;66023;-38
2023/02/18 03:38:26;;;;;;;;;;;;;;;30.16;63.23;101209.19;5098330;27;69174;-41
2023/02/18 03:40:57;;;;;;;;;;;;;;;30.17;62.80;101206.28;5074008;27;66486;-40
2023/02/18 03:43:28;;;;;;;;;;;;;;;30.24;65.08;101217.94;5084711;27;71226;-40
2023/02/18 03:46:01;;;;;;;;;;;;;;;30.24;65.34;101207.13;5074747;27;66891;-44
2023/02/18 03:48:32;;;;;;;;;;;;;;;30.18;65.96;101207.94;5088506;27;69755;-39
2023/02/18 03:51:02;;;;;;;;;;;;;;;30.16;66.10;101199.19;5082994;27;65988;-38
2023/02/18 03:53:32;;;;;;;;;;;;;;;30.15;66.45;101202.13;5091845;27;69251;-41
2023/02/18 03:56:02;;;;;;;;;;;;;;;30.13;66.99;101191.50;5093181;27;66524;-41
2023/02/18 03:58:32;;;;;;;;;;;;;;;30.13;66.70;101194.19;5093507;27;69249;-38
2023/02/18 04:01:03;;;;;;;;;;;;;;;30.12;66.72;101197.94;5096259;27;67085;-39
2023/02/18 04:03:33;;;;;;;;;;;;;;;30.14;66.89;101189.59;5093527;27;70131;-38
2023/02/18 04:06:03;;;;;;;;;;;;;;;30.14;66.88;101185.03;5088561;27;66938;-36
2023/02/18 04:08:34;;;;;;;;;;;;;;;30.15;67.17;101178.59;5093094;27;70031;-39
2023/02/18 04:11:05;;;;;;;;;;;;;;;30.17;67.29;101178.38;5096234;27;66094;-39
2023/02/18 04:13:36;;;;;;;;;;;;;;;30.21;67.53;101169.63;5075250;27;69970;-39
2023/02/18 04:16:07;;;;;;;;;;;;;;;30.24;67.37;101165.72;5090711;27;65966;-40
2023/02/18 04:18:37;;;;;;;;;;;;;;;30.25;67.30;101160.06;5096099;27;69972;-40
2023/02/18 04:21:08;;;;;;;;;;;;;;;30.26;67.50;101156.34;5074813;27;65750;-39
2023/02/18 04:23:38;;;;;;;;;;;;;;;30.28;67.37;101148.84;5096584;27;70300;-39
2023/02/18 04:26:08;;;;;;;;;;;;;;;30.30;67.14;101139.69;5079611;27;66060;-39
2023/02/18 04:28:39;;;;;;;;;;;;;;;30.33;66.96;101133.84;5093952;27;69486;-39
2023/02/18 04:31:10;;;;;;;;;;;;;;;30.31;66.96;101125.94;5079587;27;65301;-39
2023/02/18 04:33:40;;;;;;;;;;;;;;;30.37;66.34;101129.66;5100198;27;70693;-39
2023/02/18 04:36:10;;;;;;;;;;;;;;;30.44;66.01;101120.50;5099732;27;66063;-39
2023/02/18 04:38:41;;;;;;;;;;;;;;;30.49;65.47;101118.00;5098854;27;68785;-40
2023/02/18 04:41:12;;;;;;;;;;;;;;;30.56;65.33;101107.13;5100407;27;66890;-39
2023/02/18 04:43:42;;;;;;;;;;;;;;;30.60;64.76;101102.97;5095327;27;68814;-38
2023/02/18 04:46:14;;;;;;;;;;;;;;;30.65;64.86;101100.47;5095781;27;66612;-39
2023/02/18 04:48:44;;;;;;;;;;;;;;;30.69;64.76;101084.59;5093657;27;70511;-39
2023/02/18 04:51:14;;;;;;;;;;;;;;;30.73;64.35;101086.69;5101192;27;66279;-39
2023/02/18 04:53:45;;;;;;;;;;;;;;;30.77;64.33;101080.84;5101915;27;70164;-39
2023/02/18 04:56:15;;;;;;;;;;;;;;;30.82;64.83;101078.34;5099559;27;66214;-39
2023/02/18 04:58:45;;;;;;;;;;;;;;;30.83;65.34;101077.28;5095606;27;69735;-38
2023/02/18 05:01:15;;;;;;;;;;;;;;;30.66;64.58;101064.19;5096512;27;66982;-39
2023/02/18 05:03:45;;;;;;;;;;;;;;;30.45;61.93;101061.78;5094266;27;69628;-39
2023/02/18 05:06:16;;;;;;;;;;;;;;;30.20;59.90;101054.34;5078462;27;65330;-38
2023/02/18 05:08:46;;;;;;;;;;;;;;;30.01;57.21;101052.50;5094751;27;70008;-40
2023/02/18 05:11:16;;;;;;;;;;;;;;;29.82;55.62;101052.31;5098674;27;66936;-39
2023/02/18 05:13:46;;;;;;;;;;;;;;;29.69;53.66;101051.47;5098717;27;69409;-40
2023/02/18 05:16:16;;;;;;;;;;;;;;;29.58;52.96;101044.78;5081280;27;66045;-38
2023/02/18 05:18:46;;;;;;;;;;;;;;;29.43;51.92;101036.88;5069948;27;69868;-38
2023/02/18 05:21:16;;;;;;;;;;;;;;;29.34;50.86;101027.31;5094409;27;66037;-38
2023/02/18 05:23:46;;;;;;;;;;;;;;;29.23;50.19;101034.16;5076627;27;69485;-39
2023/02/18 05:26:16;;;;;;;;;;;;;;;29.20;48.80;101020.22;5076786;27;66001;-38
2023/02/18 05:28:47;;;;;;;;;;;;;;;29.24;49.14;101005.28;5099449;27;69093;-38
2023/02/18 05:31:17;;;;;;;;;;;;;;;29.16;47.73;101007.13;5087498;27;65174;-37
2023/02/18 05:33:47;;;;;;;;;;;;;;;29.15;46.93;100996.53;5098324;27;69801;-41
2023/02/18 05:36:18;;;;;;;;;;;;;;;29.10;46.36;100990.91;5078155;27;66441;-38
2023/02/18 05:38:48;;;;;;;;;;;;;;;29.07;45.54;100983.22;5091745;27;70533;-39
2023/02/18 05:41:19;;;;;;;;;;;;;;;29.01;44.76;100968.66;5075019;27;66933;-38
2023/02/18 05:46:38;;;;;;;;;;;;;;;28.95;44.19;100964.91;5089644;27;66590;-39
2023/02/18 05:49:09;;;;;;;;;;;;;;;28.76;43.59;100929.78;5079408;27;70731;-38
2023/02/18 05:51:39;;;;;;;;;;;;;;;28.90;43.24;100951.19;5098581;27;66744;-40
2023/02/18 05:54:09;;;;;;;;;;;;;;;28.90;43.51;100940.38;5098376;27;71267;-37
2023/02/18 05:56:39;;;;;;;;;;;;;;;28.89;43.33;100938.72;5094239;27;65548;-37
2023/02/18 05:59:09;;;;;;;;;;;;;;;28.89;43.00;100936.03;5095327;27;69275;-38
2023/02/18 06:01:40;;;;;;;;;;;;;;;28.86;42.52;100924.78;5093757;27;66906;-40
2023/02/18 06:04:10;;;;;;;;;;;;;;;28.82;42.62;100916.28;5094376;27;69173;-38
2023/02/18 06:06:40;;;;;;;;;;;;;;;28.80;42.52;100912.94;5073669;27;65112;-38
2023/02/18 06:09:11;;;;;;;;;;;;;;;28.81;41.98;100911.09;5094067;27;69711;-37
2023/02/18 06:11:41;;;;;;;;;;;;;;;28.77;41.99;100907.94;5086700;27;66207;-38
2023/02/18 06:14:11;;;;;;;;;;;;;;;28.74;42.12;100901.09;5091439;27;70143;-38
2023/02/18 06:16:42;;;;;;;;;;;;;;;28.72;41.87;100900.50;5092654;27;65894;-38
2023/02/18 06:19:12;;;;;;;;;;;;;;;28.75;41.74;100899.22;5100323;27;70002;-38
2023/02/18 06:21:42;;;;;;;;;;;;;;;28.73;41.59;100891.34;5097917;27;66313;-40
2023/02/18 06:24:12;;;;;;;;;;;;;;;28.70;41.02;100893.63;5086109;27;70091;-38
2023/02/18 06:26:43;;;;;;;;;;;;;;;28.68;41.35;100893.00;5097952;27;66567;-38
2023/02/18 06:29:13;;;;;;;;;;;;;;;28.70;41.06;100886.34;5094062;27;70159;-39
2023/02/18 06:31:43;;;;;;;;;;;;;;;28.70;41.23;100874.72;5093187;27;65756;-39
2023/02/18 06:34:15;;;;;;;;;;;;;;;28.66;40.88;100868.91;5096148;27;69877;-39
2023/02/18 06:36:45;;;;;;;;;;;;;;;28.67;40.64;100861.66;5094217;27;66624;-40
2023/02/18 06:39:15;;;;;;;;;;;;;;;28.66;40.86;100865.38;5089253;27;70364;-40
2023/02/18 06:41:45;;;;;;;;;;;;;;;28.62;41.06;100856.03;5095032;27;66036;-38
2023/02/18 06:44:16;;;;;;;;;;;;;;;28.61;40.36;100854.34;5094648;27;69291;-40
2023/02/18 06:46:46;;;;;;;;;;;;;;;28.57;40.47;100851.25;5099692;27;65556;-38
2023/02/18 06:49:16;;;;;;;;;;;;;;;28.56;40.19;100846.91;5099601;27;69813;-38
2023/02/18 06:51:46;;;;;;;;;;;;;;;28.52;40.04;100843.75;5098792;27;65439;-38
2023/02/18 06:54:17;;;;;;;;;;;;;;;28.50;40.44;100837.75;5099891;27;69465;-39
2023/02/18 06:56:47;;;;;;;;;;;;;;;28.46;40.60;100836.47;5100372;27;66556;-38
2023/02/18 06:59:17;;;;;;;;;;;;;;;28.44;40.04;100841.25;5099479;27;69650;-38
2023/02/18 07:01:47;;;;;;;;;;;;;;;28.43;40.19;100834.19;5089943;27;66909;-38
2023/02/18 07:04:17;;;;;;;;;;;;;;;28.42;40.19;100829.00;5099270;27;69714;-40
2023/02/18 07:06:47;;;;;;;;;;;;;;;28.41;40.30;100828.13;5098275;27;65733;-39
2023/02/18 07:09:17;;;;;;;;;;;;;;;28.40;40.20;100815.69;5077710;27;70164;-39
2023/02/18 07:11:47;;;;;;;;;;;;;;;28.39;40.50;100807.78;5098393;27;65628;-39
2023/02/18 07:14:17;;;;;;;;;;;;;;;28.43;40.12;100799.13;5099287;27;71008;-39
2023/02/18 07:16:48;;;;;;;;;;;;;;;28.44;40.55;100794.56;5098549;27;65347;-38
2023/02/18 07:19:18;;;;;;;;;;;;;;;28.44;40.51;100794.56;5097858;27;70920;-39
2023/02/18 07:21:49;;;;;;;;;;;;;;;28.44;40.51;100787.28;5089903;27;66789;-39
2023/02/18 07:24:19;;;;;;;;;;;;;;;28.45;40.55;100780.88;5096873;27;69513;-38
2023/02/18 07:26:49;;;;;;;;;;;;;;;28.48;41.04;100780.44;5092312;27;66862;-37
2023/02/18 07:29:19;;;;;;;;;;;;;;;28.65;41.24;100780.88;5089616;27;70035;-37
2023/02/18 07:31:49;;;;;;;;;;;;;;;28.85;41.80;100775.47;5090835;27;67092;-39
2023/02/18 07:34:19;;;;;;;;;;;;;;;29.04;41.93;100765.72;5092475;27;70027;-40
2023/02/18 07:36:49;;;;;;;;;;;;;;;29.20;42.91;100767.13;5091252;27;66548;-40
2023/02/18 07:39:20;;;;;;;;;;;;;;;29.35;43.38;100754.19;5094496;27;70113;-38
2023/02/18 07:41:50;;;;;;;;;;;;;;;29.48;43.68;100760.63;5074937;27;66141;-39
2023/02/18 07:44:26;;;;;;;;;;;;;;;29.64;44.40;100754.72;5091441;27;70261;-37
2023/02/18 07:46:56;;;;;;;;;;;;;;;29.79;46.45;100741.78;5095768;27;64847;-38
2023/02/18 07:49:26;;;;;;;;;;;;;;;29.95;47.52;100740.44;5098446;27;70049;-37
2023/02/18 07:51:56;;;;;;;;;;;;;;;30.08;48.76;100742.22;5080364;27;66458;-38
2023/02/18 07:54:27;;;;;;;;;;;;;;;30.21;49.83;100727.78;5096920;27;68647;-38
2023/02/18 07:56:57;;;;;;;;;;;;;;;30.34;53.86;100730.44;5090860;27;66614;-39
2023/02/18 07:59:27;;;;;;;;;;;;;;;30.52;59.00;100731.53;5097129;27;69910;-38
2023/02/18 08:01:57;;;;;;;;;;;;;;;30.57;59.75;100721.69;5073869;27;65831;-38
2023/02/18 08:04:28;;;;;;;;;;;;;;;30.57;60.25;100721.69;5094447;27;69497;-39
2023/02/18 08:06:58;;;;;;;;;;;;;;;30.61;61.39;100720.19;5096893;27;66670;-40
2023/02/18 08:09:28;;;;;;;;;;;;;;;30.63;61.49;100723.50;5089168;27;70813;-38
2023/02/18 08:11:59;;;;;;;;;;;;;;;30.66;61.72;100723.06;5097648;27;66328;-39
2023/02/18 08:14:29;;;;;;;;;;;;;;;30.75;59.54;100718.19;5094897;27;70830;-39
2023/02/18 08:16:59;;;;;;;;;;;;;;;30.87;58.48;100712.88;5096734;27;65582;-38
2023/02/18 08:19:29;;;;;;;;;;;;;;;30.96;58.10;100711.53;5092684;27;69727;-38
2023/02/18 08:22:03;;;;;;;;;;;;;;;31.05;57.74;100714.78;5103997;27;65438;-38
2023/02/18 08:24:33;;;;;;;;;;;;;;;31.11;58.32;100709.28;5097165;27;69849;-39
2023/02/18 08:27:04;;;;;;;;;;;;;;;31.20;58.49;100707.09;5098675;27;66608;-40
2023/02/18 08:29:35;;;;;;;;;;;;;;;31.27;58.46;100701.59;5093958;27;69795;-39
2023/02/18 08:32:05;;;;;;;;;;;;;;;31.34;58.63;100696.91;5091379;27;65002;-38
2023/02/18 08:34:36;;;;;;;;;;;;;;;31.41;58.56;100700.41;5092550;27;70289;-39
2023/02/18 08:37:07;;;;;;;;;;;;;;;31.46;59.44;100697.03;5090906;27;66773;-39
2023/02/18 08:39:37;;;;;;;;;;;;;;;31.50;59.65;100695.50;5088389;27;70980;-41
2023/02/18 08:42:08;;;;;;;;;;;;;;;31.58;59.02;100703.31;5087189;27;67618;-41
2023/02/18 08:44:38;;;;;;;;;;;;;;;31.64;58.77;100696.13;5093477;27;69387;-40
2023/02/18 08:47:08;;;;;;;;;;;;;;;31.71;58.30;100694.19;5096364;27;65735;-42
2023/02/18 08:49:59;;;;;;;;;;;;;;;31.76;58.22;100688.88;5098823;27;70308;-39
2023/02/18 08:52:29;;;;;;;;;;;;;;;31.81;58.64;100691.72;5097686;27;65767;-41
2023/02/18 08:54:59;;;;;;;;;;;;;;;31.85;58.68;100692.94;5096577;27;69544;-39
2023/02/18 08:57:29;;;;;;;;;;;;;;;31.89;58.48;100693.28;5098488;27;66424;-40
2023/02/18 08:59:59;;;;;;;;;;;;;;;31.92;58.56;100693.66;5095034;27;69384;-41
2023/02/18 09:02:29;;;;;;;;;;;;;;;31.95;58.33;100697.81;5074400;27;65626;-40
2023/02/18 09:04:59;;;;;;;;;;;;;;;31.98;58.49;100698.19;5100460;27;70955;-39
2023/02/18 09:07:30;;;;;;;;;;;;;;;32.02;58.34;100691.22;5099044;27;66686;-40
2023/02/18 09:10:00;;;;;;;;;;;;;;;32.03;58.61;100695.56;5100832;27;69445;-41
2023/02/18 09:12:30;;;;;;;;;;;;;;;32.05;58.39;100685.31;5100105;27;65601;-39
2023/02/18 09:15:01;;;;;;;;;;;;;;;32.09;58.21;100693.00;5098132;27;70493;-40
2023/02/18 09:17:31;;;;;;;;;;;;;;;32.11;58.08;100685.47;5101214;27;64623;-40
2023/02/18 09:20:01;;;;;;;;;;;;;;;32.12;58.02;100692.53;5098328;27;69871;-38
2023/02/18 09:22:32;;;;;;;;;;;;;;;32.14;57.98;100695.84;5109327;27;65955;-40
2023/02/18 09:25:03;;;;;;;;;;;;;;;32.15;57.95;100698.34;5100737;27;70259;-40
2023/02/18 09:27:33;;;;;;;;;;;;;;;32.18;57.92;100702.44;5098547;27;65989;-39
2023/02/18 09:30:04;;;;;;;;;;;;;;;32.18;57.96;100707.88;5082689;27;70447;-40
2023/02/18 09:32:34;;;;;;;;;;;;;;;32.20;57.94;100703.88;5090612;27;66563;-39
2023/02/18 09:35:04;;;;;;;;;;;;;;;32.22;58.03;100714.50;5092245;27;69236;-40
2023/02/18 09:37:34;;;;;;;;;;;;;;;32.20;58.17;100717.44;5085313;27;65832;-39
2023/02/18 09:40:05;;;;;;;;;;;;;;;32.22;58.54;100709.06;5083978;27;70219;-41
2023/02/18 09:42:35;;;;;;;;;;;;;;;32.21;59.21;100712.84;5095650;27;67069;-39
2023/02/18 09:45:11;;;;;;;;;;;;;;;32.21;59.51;100712.84;5088935;27;69480;-40
2023/02/18 09:47:43;;;;;;;;;;;;;;;32.20;59.71;100716.63;5094909;27;66506;-41
2023/02/18 09:50:20;;;;;;;;;;;;;;;32.19;59.71;100714.97;5096826;27;69024;-39
2023/02/18 09:52:51;;;;;;;;;;;;;;;32.20;59.70;100719.31;5093868;27;66337;-39
2023/02/18 09:55:24;;;;;;;;;;;;;;;32.21;59.70;100713.69;5086978;27;70564;-42
2023/02/18 09:57:56;;;;;;;;;;;;;;;32.20;59.85;100722.03;5089600;27;66747;-39
2023/02/18 10:00:38;;;;;;;;;;;;;;;32.20;59.88;100722.03;5091175;27;69753;-42
2023/02/18 10:03:19;;;;;;;;;;;;;;;32.19;60.24;100742.94;5079540;27;66406;-40
2023/02/18 10:05:54;;;;;;;;;;;;;;;32.21;60.38;100751.69;5087099;27;70588;-41
2023/02/18 10:08:28;;;;;;;;;;;;;;;32.21;60.71;100756.28;5085777;27;65374;-42
2023/02/18 10:10:59;;;;;;;;;;;;;;;32.18;60.45;100754.84;5092180;27;69389;-39
2023/02/18 10:13:31;;;;;;;;;;;;;;;32.18;60.59;100751.28;5084730;27;65995;-40
2023/02/18 10:16:03;;;;;;;;;;;;;;;32.17;61.08;100755.06;5089062;27;68953;-40
2023/02/18 10:18:39;;;;;;;;;;;;;;;32.14;61.31;100756.38;5090354;27;65505;-42
2023/02/18 10:21:13;;;;;;;;;;;;;;;32.11;61.35;100761.44;5091964;27;69886;-40
2023/02/18 10:23:51;;;;;;;;;;;;;;;32.07;61.89;100755.66;5088830;27;66471;-39
2023/02/18 10:26:22;;;;;;;;;;;;;;;32.05;61.72;100771.31;5078925;27;69022;-40
2023/02/18 10:28:52;;;;;;;;;;;;;;;32.03;61.76;100771.53;5086807;27;66889;-41
2023/02/18 10:31:43;;;;;;;;;;;;;;;32.02;61.82;100769.91;5087789;27;69243;-41
2023/02/18 10:34:31;;;;;;;;;;;;;;;32.00;62.13;100780.16;5089303;27;66382;-40
2023/02/18 10:37:26;;;;;;;;;;;;;;;31.98;62.05;100792.28;5078007;27;69097;-40
2023/02/18 10:40:12;;;;;;;;;;;;;;;31.96;62.18;100795.25;5089175;27;67311;-41
2023/02/18 10:42:51;;;;;;;;;;;;;;;31.93;62.02;100793.00;5075592;27;70727;-42
2023/02/18 10:45:32;;;;;;;;;;;;;;;31.92;62.47;100798.63;5090914;27;66598;-42
2023/02/18 10:48:21;;;;;;;;;;;;;;;31.89;62.70;100791.75;5085992;27;69341;-40
2023/02/18 10:50:51;;;;;;;;;;;;;;;31.86;62.55;100796.81;5072041;27;65700;-40
2023/02/18 10:53:28;;;;;;;;;;;;;;;31.82;62.62;100797.28;5090373;27;70551;-41
2023/02/18 10:55:58;;;;;;;;;;;;;;;31.82;62.51;100804.59;5095789;27;66147;-43
2023/02/18 10:58:33;;;;;;;;;;;;;;;31.82;62.55;100812.72;5092231;27;69527;-40
2023/02/18 11:01:12;;;;;;;;;;;;;;;31.80;62.49;100810.22;5093012;27;66696;-39
2023/02/18 11:03:45;;;;;;;;;;;;;;;31.80;62.44;100820.25;5074242;27;68841;-40
2023/02/18 11:06:30;;;;;;;;;;;;;;;31.77;62.34;100826.97;5094076;27;66662;-39
2023/02/18 11:09:01;;;;;;;;;;;;;;;31.77;62.76;100837.00;5094905;27;70550;-40
2023/02/18 11:11:35;;;;;;;;;;;;;;;31.74;62.21;100837.44;5091386;27;65607;-40
2023/02/18 11:14:07;;;;;;;;;;;;;;;31.73;62.69;100846.63;5084702;27;70097;-40
2023/02/18 11:16:42;;;;;;;;;;;;;;;31.72;62.61;100853.13;5090513;27;66977;-40
2023/02/18 11:19:33;;;;;;;;;;;;;;;31.70;62.62;100858.75;5085188;27;70052;-40
2023/02/18 11:22:23;;;;;;;;;;;;;;;31.68;62.84;100850.03;5094005;27;66801;-41
2023/02/18 11:24:55;;;;;;;;;;;;;;;31.65;62.98;100858.63;5079218;27;69859;-40
2023/02/18 11:27:25;;;;;;;;;;;;;;;31.61;63.37;100855.50;5094622;27;66189;-40
2023/02/18 11:30:04;;;;;;;;;;;;;;;31.61;63.31;100854.69;5077969;27;69150;-40
2023/02/18 11:32:36;;;;;;;;;;;;;;;31.57;64.19;100864.34;5088390;27;66558;-39
2023/02/18 11:35:06;;;;;;;;;;;;;;;31.57;63.65;100865.16;5092496;27;70338;-39
2023/02/18 11:37:36;;;;;;;;;;;;;;;31.55;64.48;100869.97;5097679;27;65225;-42
2023/02/18 11:40:07;;;;;;;;;;;;;;;31.52;64.05;100867.72;5076871;27;70358;-41
2023/02/18 11:42:37;;;;;;;;;;;;;;;31.56;63.92;100873.50;5089097;27;66073;-41
2023/02/18 11:45:25;;;;;;;;;;;;;;;31.54;64.00;100865.63;5062274;27;69116;-40
2023/02/18 11:48:05;;;;;;;;;;;;;;;31.56;63.55;100874.34;5084687;27;65837;-40
2023/02/18 11:50:36;;;;;;;;;;;;;;;31.58;63.28;100876.84;5075482;27;68934;-40
2023/02/18 11:53:26;;;;;;;;;;;;;;;31.56;63.33;100878.94;5092454;27;66130;-40
2023/02/18 11:55:58;;;;;;;;;;;;;;;31.53;63.59;100891.06;5094013;27;68993;-42
2023/02/18 11:58:34;;;;;;;;;;;;;;;31.54;63.16;100891.91;5090162;27;65656;-39
2023/02/18 12:01:06;;;;;;;;;;;;;;;31.55;63.08;100899.81;5093520;27;70801;-42
2023/02/18 12:03:41;;;;;;;;;;;;;;;31.53;63.55;100904.63;5081102;27;66144;-39
2023/02/18 12:06:14;;;;;;;;;;;;;;;31.54;63.37;100900.88;5091428;27;69684;-42
2023/02/18 12:08:57;;;;;;;;;;;;;;;31.53;63.05;100904.63;5078166;27;66169;-40
2023/02/18 12:11:32;;;;;;;;;;;;;;;31.55;62.44;100912.53;5093375;27;69837;-40
2023/02/18 12:14:02;;;;;;;;;;;;;;;31.56;62.91;100917.72;5089924;27;66233;-41
2023/02/18 12:16:35;;;;;;;;;;;;;;;31.57;63.05;100924.81;5087752;27;70010;-40
2023/02/18 12:19:09;;;;;;;;;;;;;;;31.57;63.02;100924.81;5084283;27;66820;-39
2023/02/18 12:21:58;;;;;;;;;;;;;;;31.59;62.82;100940.84;5106564;27;69692;-41
2023/02/18 12:24:37;;;;;;;;;;;;;;;31.48;67.02;100945.16;5088874;27;65791;-39
2023/02/18 12:27:10;;;;;;;;;;;;;;;31.35;68.00;100942.53;5085952;27;69398;-41
2023/02/18 12:29:40;;;;;;;;;;;;;;;31.29;68.56;100948.84;5072653;27;66105;-41
2023/02/18 12:32:23;;;;;;;;;;;;;;;31.22;68.32;100958.88;5076663;27;69669;-40
2023/02/18 12:35:00;;;;;;;;;;;;;;;31.17;69.06;100952.25;5054694;27;66240;-38
2023/02/18 12:37:49;;;;;;;;;;;;;;;31.13;69.18;100967.28;5095619;27;69149;-40
2023/02/18 12:40:32;;;;;;;;;;;;;;;31.09;69.39;100966.09;5089300;27;66916;-43
2023/02/18 12:43:02;;;;;;;;;;;;;;;31.07;69.20;100973.59;5091919;27;70454;-42
2023/02/18 12:45:38;;;;;;;;;;;;;;;31.02;69.01;100978.84;5093706;27;66949;-40
2023/02/18 12:48:21;;;;;;;;;;;;;;;31.00;69.52;100982.81;5088382;27;70400;-39
2023/02/18 12:50:51;;;;;;;;;;;;;;;30.99;69.09;100990.09;5097430;27;66022;-37
2023/02/18 12:53:47;;;;;;;;;;;;;;;30.96;69.85;100987.84;5096985;27;70586;-39
2023/02/18 12:56:26;;;;;;;;;;;;;;;30.94;69.71;100993.47;5064598;27;66130;-42
2023/02/18 12:58:59;;;;;;;;;;;;;;;30.93;70.23;101004.53;5090521;27;69972;-40
2023/02/18 13:01:34;;;;;;;;;;;;;;;30.92;70.13;101002.84;5093260;27;66326;-40
2023/02/18 13:04:23;;;;;;;;;;;;;;;30.90;70.17;101007.69;5089346;27;69902;-39
2023/02/18 13:07:00;;;;;;;;;;;;;;;30.90;70.59;101008.50;5100514;27;66352;-41
2023/02/18 13:09:45;;;;;;;;;;;;;;;30.89;70.73;101016.84;5072310;27;70858;-38